createdAt,value
2022-09-23T00:01:10.974Z,1.75
2022-09-23T00:03:41.878Z,2.03
2022-09-23T00:06:18.143Z,1.95
2022-09-23T00:08:45.158Z,1.85
2022-09-23T00:11:14.585Z,2.10
2022-09-23T00:13:43.331Z,2.65
2022-09-23T00:16:13.246Z,2.22
2022-09-23T00:18:39.958Z,2.33
2022-09-23T00:21:10.348Z,2.53
2022-09-23T00:23:38.076Z,2.80
2022-09-23T00:26:06.205Z,2.75
2022-09-23T00:28:33.302Z,2.47
2022-09-23T00:31:05.407Z,2.17
2022-09-23T00:33:32.221Z,2.40
2022-09-23T00:36:04.046Z,2.38
2022-09-23T00:38:30.690Z,2.05
2022-09-23T00:40:58.401Z,2.20
2022-09-23T00:43:44.558Z,2.10
2022-09-23T00:46:17.598Z,2.92
2022-09-23T00:48:45.619Z,2.15
2022-09-23T00:51:17.848Z,2.10
2022-09-23T00:53:47.093Z,2.00
2022-09-23T00:56:14.778Z,2.30
2022-09-23T00:58:44.478Z,2.20
2022-09-23T01:01:13.824Z,2.40
2022-09-23T01:03:43.367Z,2.53
2022-09-23T01:06:11.129Z,2.70
2022-09-23T01:08:37.964Z,2.72
2022-09-23T01:11:22.501Z,2.47
2022-09-23T01:14:21.782Z,2.63
2022-09-23T01:17:09.465Z,2.45
2022-09-23T01:20:00.462Z,2.47
2022-09-23T01:22:32.703Z,2.58
2022-09-23T01:25:28.561Z,2.58
2022-09-23T01:28:19.923Z,2.53
2022-09-23T01:31:05.126Z,2.53
2022-09-23T01:33:51.015Z,2.35
2022-09-23T01:36:23.929Z,2.67
2022-09-23T01:39:08.099Z,2.97
2022-09-23T01:41:44.500Z,3.17
2022-09-23T01:44:20.793Z,3.25
2022-09-23T01:47:10.801Z,3.72
2022-09-23T01:49:56.085Z,2.80
2022-09-23T01:52:38.764Z,2.65
2022-09-23T01:55:24.907Z,2.85
2022-09-23T01:58:01.037Z,2.92
2022-09-23T02:00:31.753Z,4.03
2022-09-23T02:03:06.971Z,3.58
2022-09-23T02:05:41.227Z,2.90
2022-09-23T02:08:29.721Z,3.15
2022-09-23T02:11:08.882Z,3.60
2022-09-23T02:14:00.017Z,3.17
2022-09-23T02:16:39.436Z,3.80
2022-09-23T02:19:28.063Z,4.60
2022-09-23T02:22:21.868Z,4.18
2022-09-23T02:24:49.147Z,4.50
2022-09-23T02:27:40.826Z,4.85
2022-09-23T02:30:15.144Z,4.55
2022-09-23T02:33:17.171Z,4.20
2022-09-23T02:35:53.318Z,4.82
2022-09-23T02:38:36.510Z,4.80
2022-09-23T02:41:17.483Z,5.05
2022-09-23T02:43:57.745Z,5.28
2022-09-23T02:46:24.487Z,5.22
2022-09-23T02:48:56.764Z,5.30
2022-09-23T02:51:28.776Z,4.43
2022-09-23T02:53:57.547Z,4.60
2022-09-23T02:56:24.445Z,5.30
2022-09-23T02:58:55.019Z,4.82
2022-09-23T03:01:58.590Z,5.25
2022-09-23T03:04:39.738Z,5.05
2022-09-23T03:07:18.902Z,5.40
2022-09-23T03:10:04.261Z,5.97
2022-09-23T03:12:52.898Z,5.65
2022-09-23T03:15:43.954Z,5.53
2022-09-23T03:18:35.836Z,5.70
2022-09-23T03:21:08.317Z,5.10
2022-09-23T03:23:39.328Z,5.25
2022-09-23T03:26:12.591Z,5.55
2022-09-23T03:28:42.714Z,5.75
2022-09-23T03:31:12.036Z,5.60
2022-09-23T03:33:41.456Z,6.00
2022-09-23T03:36:30.030Z,5.82
2022-09-23T03:39:05.169Z,6.13
2022-09-23T03:41:43.264Z,5.60
2022-09-23T03:44:10.922Z,5.65
2022-09-23T03:46:37.685Z,5.97
2022-09-23T03:49:16.449Z,6.25
2022-09-23T03:51:44.822Z,6.45
2022-09-23T03:54:11.735Z,5.90
2022-09-23T03:56:38.352Z,5.88
2022-09-23T03:59:04.920Z,5.78
2022-09-23T04:01:31.589Z,5.60
2022-09-23T04:03:58.186Z,5.07
2022-09-23T04:06:24.874Z,5.55
2022-09-23T04:08:51.487Z,6.50
2022-09-23T04:11:18.126Z,5.18
2022-09-23T04:13:44.742Z,5.32
2022-09-23T04:16:11.426Z,6.18
2022-09-23T04:18:38.040Z,5.63
2022-09-23T04:21:04.782Z,5.63
2022-09-23T04:23:31.548Z,6.10
2022-09-23T04:25:58.204Z,5.70
2022-09-23T04:28:25.037Z,5.80
2022-09-23T04:30:51.660Z,6.20
2022-09-23T04:33:18.344Z,6.30
2022-09-23T04:35:49.366Z,5.05
2022-09-23T04:38:15.953Z,5.68
2022-09-23T04:40:42.568Z,5.57
2022-09-23T04:43:13.435Z,5.82
2022-09-23T04:45:40.257Z,5.80
2022-09-23T04:48:07.212Z,5.75
2022-09-23T04:50:34.066Z,6.18
2022-09-23T04:53:01.812Z,5.38
2022-09-23T04:55:28.753Z,5.55
2022-09-23T04:57:55.544Z,5.82
2022-09-23T05:00:23.222Z,5.63
2022-09-23T05:02:50.510Z,5.13
2022-09-23T05:05:23.584Z,5.43
2022-09-23T05:07:51.206Z,5.40
2022-09-23T05:10:18.155Z,5.13
2022-09-23T05:12:44.727Z,5.45
2022-09-23T05:15:13.031Z,5.25
2022-09-23T05:17:39.621Z,4.95
2022-09-23T05:20:06.767Z,4.70
2022-09-23T05:22:33.332Z,5.00
2022-09-23T05:25:02.321Z,4.88
2022-09-23T05:27:29.015Z,4.90
2022-09-23T05:29:55.697Z,4.97
2022-09-23T05:32:22.628Z,4.97
2022-09-23T05:34:49.292Z,5.03
2022-09-23T05:37:15.956Z,5.65
2022-09-23T05:39:42.553Z,5.38
2022-09-23T05:42:09.870Z,5.30
2022-09-23T05:44:36.482Z,6.05
2022-09-23T05:47:03.148Z,6.07
2022-09-23T05:49:48.659Z,6.43
2022-09-23T05:52:17.146Z,5.93
2022-09-23T05:54:43.809Z,6.35
2022-09-23T05:57:10.413Z,6.72
2022-09-23T05:59:38.098Z,6.05
2022-09-23T06:02:04.828Z,6.22
2022-09-23T06:04:31.543Z,6.30
2022-09-23T06:07:02.791Z,5.38
2022-09-23T06:09:35.597Z,5.70
2022-09-23T06:12:04.378Z,5.90
2022-09-23T06:14:30.983Z,4.85
2022-09-23T06:16:57.573Z,4.70
2022-09-23T06:19:24.196Z,5.13
2022-09-23T06:21:50.831Z,4.88
2022-09-23T06:24:20.804Z,4.30
2022-09-23T06:26:49.045Z,5.00
2022-09-23T06:29:15.693Z,4.32
2022-09-23T06:31:43.253Z,4.57
2022-09-23T06:34:13.382Z,4.70
2022-09-23T06:36:44.994Z,4.25
2022-09-23T06:39:12.793Z,4.72
2022-09-23T06:41:39.465Z,4.28
2022-09-23T06:44:11.616Z,3.95
2022-09-23T06:46:38.415Z,4.45
2022-09-23T06:49:05.028Z,4.25
2022-09-23T06:51:31.886Z,3.35
2022-09-23T06:53:58.565Z,4.65
2022-09-23T06:56:25.179Z,4.03
2022-09-23T06:58:52.620Z,4.05
2022-09-23T07:01:19.697Z,3.78
2022-09-23T07:03:48.147Z,4.15
2022-09-23T07:06:14.852Z,3.97
2022-09-23T07:08:44.771Z,3.90
2022-09-23T07:11:13.021Z,3.83
2022-09-23T07:13:41.461Z,3.85
2022-09-23T07:16:09.844Z,3.92
2022-09-23T07:18:37.566Z,3.85
2022-09-23T07:21:24.170Z,4.28
2022-09-23T07:23:51.659Z,4.05
2022-09-23T07:26:19.765Z,3.63
2022-09-23T07:28:46.679Z,3.30
2022-09-23T07:31:17.178Z,3.63
2022-09-23T07:33:49.097Z,3.55
2022-09-23T07:36:18.548Z,3.75
2022-09-23T07:38:46.482Z,3.30
2022-09-23T07:41:16.827Z,3.20
2022-09-23T07:43:44.288Z,3.22
2022-09-23T07:46:16.330Z,3.10
2022-09-23T07:48:44.119Z,3.28
2022-09-23T07:51:23.624Z,3.08
2022-09-23T07:53:51.613Z,3.40
2022-09-23T07:56:19.375Z,2.65
2022-09-23T07:58:59.860Z,2.70
2022-09-23T08:01:48.441Z,2.30
2022-09-23T08:04:18.634Z,2.90
2022-09-23T08:06:47.751Z,2.30
2022-09-23T08:09:16.128Z,2.85
2022-09-23T08:11:42.844Z,2.10
2022-09-23T08:14:11.302Z,7.50
2022-09-23T08:16:37.904Z,2.35
2022-09-23T08:21:32.185Z,2.20
2022-09-23T08:23:59.198Z,1.88
2022-09-23T08:26:25.856Z,2.10
2022-09-23T08:28:56.440Z,2.10
2022-09-23T08:31:23.643Z,2.30
2022-09-23T08:33:55.689Z,2.10
2022-09-23T08:36:22.937Z,2.20
2022-09-23T08:38:49.651Z,2.38
2022-09-23T08:41:40.774Z,2.20
2022-09-23T08:44:16.365Z,2.15
2022-09-23T08:47:01.131Z,2.40
2022-09-23T08:49:45.500Z,2.25
2022-09-23T08:52:22.301Z,2.17
2022-09-23T08:54:53.181Z,2.15
2022-09-23T08:57:36.661Z,2.33
2022-09-23T09:00:04.279Z,2.28
2022-09-23T09:02:35.152Z,2.25
2022-09-23T09:05:10.309Z,2.25
2022-09-23T09:07:40.335Z,2.35
2022-09-23T09:10:24.030Z,2.28
2022-09-23T09:13:17.366Z,2.50
2022-09-23T09:16:00.857Z,2.67
2022-09-23T09:18:31.107Z,2.45
2022-09-23T09:21:08.502Z,2.70
2022-09-23T09:23:53.803Z,2.45
2022-09-23T09:26:26.947Z,2.38
2022-09-23T09:29:23.308Z,2.90
2022-09-23T09:31:51.210Z,2.33
2022-09-23T09:34:23.730Z,3.10
2022-09-23T09:37:04.661Z,2.42
2022-09-23T09:39:34.921Z,2.22
2022-09-23T09:42:02.542Z,2.60
2022-09-23T09:44:48.626Z,2.60
2022-09-23T09:47:40.450Z,2.15
2022-09-23T09:50:13.904Z,2.45
2022-09-23T09:52:43.104Z,2.10
2022-09-23T09:55:12.763Z,7.82
2022-09-23T09:58:05.081Z,2.30
2022-09-23T10:00:36.974Z,2.40
2022-09-23T10:03:13.198Z,1.90
2022-09-23T10:05:45.492Z,1.98
2022-09-23T10:08:33.415Z,2.30
2022-09-23T10:11:17.157Z,2.15
2022-09-23T10:14:18.000Z,2.20
2022-09-23T10:16:47.064Z,1.90
2022-09-23T10:19:25.995Z,2.15
2022-09-23T10:21:59.784Z,2.92
2022-09-23T10:24:32.173Z,2.65
2022-09-23T10:27:07.624Z,2.03
2022-09-23T10:29:36.986Z,2.10
2022-09-23T10:32:14.615Z,2.10
2022-09-23T10:34:46.856Z,2.15
2022-09-23T10:37:34.401Z,1.95
2022-09-23T10:40:31.735Z,2.13
2022-09-23T10:43:41.691Z,1.90
2022-09-23T10:46:39.426Z,2.13
2022-09-23T10:49:21.495Z,2.20
2022-09-23T10:51:51.192Z,2.08
2022-09-23T10:54:39.097Z,2.10
2022-09-23T10:57:38.000Z,2.08
2022-09-23T11:00:16.499Z,2.20
2022-09-23T11:02:55.413Z,2.05
2022-09-23T11:05:37.569Z,2.00
2022-09-23T11:08:13.562Z,1.90
2022-09-23T11:10:49.712Z,1.98
2022-09-23T11:13:38.132Z,1.55
2022-09-23T11:16:39.027Z,1.60
2022-09-23T11:19:50.623Z,1.70
2022-09-23T11:22:54.878Z,1.63
2022-09-23T11:25:36.200Z,1.60
2022-09-23T11:28:25.565Z,1.63
2022-09-23T11:31:15.805Z,1.33
2022-09-23T11:34:02.794Z,1.50
2022-09-23T11:39:06.750Z,1.33
2022-09-23T11:41:38.337Z,1.65
2022-09-23T11:44:20.191Z,1.73
2022-09-23T11:51:23.181Z,1.17
2022-09-23T11:54:16.114Z,1.45
2022-09-23T11:57:09.839Z,1.35
2022-09-23T12:00:09.922Z,1.08
2022-09-23T12:03:50.875Z,1.10
2022-09-23T12:06:32.756Z,1.10
2022-09-23T12:09:04.548Z,1.15
2022-09-23T12:11:50.367Z,1.35
2022-09-23T12:14:31.681Z,1.33
2022-09-23T12:17:15.090Z,1.13
2022-09-23T12:20:00.474Z,1.10
2022-09-23T12:22:52.654Z,1.20
2022-09-23T12:25:52.859Z,1.58
2022-09-23T12:28:25.078Z,1.10
2022-09-23T12:30:56.156Z,1.00
2022-09-23T12:33:27.432Z,1.25
2022-09-23T12:36:05.972Z,1.10
2022-09-23T12:38:56.301Z,1.38
2022-09-23T12:41:37.452Z,1.30
2022-09-23T12:44:23.259Z,1.27
2022-09-23T12:47:21.261Z,1.15
2022-09-23T12:49:49.456Z,1.20
2022-09-23T12:52:16.330Z,1.27
2022-09-23T12:54:43.915Z,1.15
2022-09-23T12:57:14.803Z,1.30
2022-09-23T12:59:55.844Z,1.02
2022-09-23T13:02:25.631Z,1.02
2022-09-23T13:05:17.668Z,1.02
2022-09-23T13:07:48.639Z,1.08
2022-09-23T13:10:18.226Z,1.00
2022-09-23T13:12:46.355Z,1.13
2022-09-23T13:15:29.896Z,1.20
2022-09-23T13:18:18.328Z,1.45
2022-09-23T13:20:46.757Z,1.30
2022-09-23T13:23:32.663Z,2.80
2022-09-23T13:26:10.655Z,1.92
2022-09-23T13:28:44.590Z,1.55
2022-09-23T13:31:16.287Z,1.70
2022-09-23T13:33:48.079Z,1.00
2022-09-23T13:36:17.495Z,1.20
2022-09-23T13:38:46.598Z,1.40
2022-09-23T13:41:23.547Z,1.42
2022-09-23T13:43:58.997Z,1.20
2022-09-23T13:46:29.904Z,1.30
2022-09-23T13:48:57.039Z,1.10
2022-09-23T13:51:36.655Z,1.27
2022-09-23T13:54:04.666Z,1.20
2022-09-23T13:56:33.207Z,1.30
2022-09-23T13:59:26.843Z,1.45
2022-09-23T14:02:15.167Z,0.98
2022-09-23T14:04:42.130Z,1.48
2022-09-23T14:07:12.946Z,1.50
2022-09-23T14:09:46.306Z,1.50
2022-09-23T14:12:13.409Z,2.03
2022-09-23T14:14:41.976Z,1.80
2022-09-23T14:17:10.198Z,1.20
2022-09-23T14:19:37.184Z,1.30
2022-09-23T14:22:04.033Z,1.40
2022-09-23T14:24:36.002Z,1.05
2022-09-23T14:27:15.773Z,1.30
2022-09-23T14:29:48.011Z,1.40
2022-09-23T14:32:20.951Z,1.20
2022-09-23T14:35:09.186Z,1.60
2022-09-23T14:37:57.728Z,1.70
2022-09-23T14:40:50.931Z,1.80
2022-09-23T14:43:23.911Z,1.63
2022-09-23T14:45:54.755Z,1.50
2022-09-23T14:48:31.195Z,1.50
2022-09-23T14:50:59.956Z,1.63
2022-09-23T14:53:35.673Z,1.38
2022-09-23T14:56:08.406Z,1.10
2022-09-23T14:58:56.288Z,1.50
2022-09-23T15:02:14.482Z,1.73
2022-09-23T15:05:23.314Z,1.75
2022-09-23T15:21:08.202Z,2.30
2022-09-23T15:49:28.525Z,3.20
2022-09-23T16:12:04.873Z,2.17
2022-09-23T16:14:48.394Z,1.80
2022-09-23T16:31:36.134Z,1.65
2022-09-23T16:34:30.430Z,2.00
2022-09-23T16:37:38.052Z,2.38
2022-09-23T16:49:00.899Z,3.22
2022-09-23T16:51:53.374Z,2.72
2022-09-23T16:54:27.098Z,3.08
2022-09-23T16:57:28.129Z,3.05
2022-09-23T17:00:26.347Z,1.92
2022-09-23T17:03:35.534Z,1.60
2022-09-23T17:10:27.353Z,1.45
2022-09-23T17:20:22.322Z,3.55
2022-09-23T17:22:57.033Z,3.88
2022-09-23T17:25:37.715Z,2.70
2022-09-23T17:28:18.800Z,2.10
2022-09-23T17:31:15.018Z,3.22
2022-09-23T17:34:06.918Z,5.07
2022-09-23T17:36:33.581Z,6.35
2022-09-23T17:39:00.311Z,22.90
2022-09-23T17:41:27.400Z,23.17
2022-09-23T17:44:00.926Z,11.65
2022-09-23T17:46:34.653Z,5.68
2022-09-23T17:49:11.413Z,3.80
2022-09-23T17:51:40.251Z,3.97
2022-09-23T17:54:08.456Z,4.25
2022-09-23T17:56:35.063Z,5.30
2022-09-23T17:59:02.206Z,14.23
2022-09-23T18:01:29.814Z,19.52
2022-09-23T18:04:01.506Z,16.75
2022-09-23T18:06:33.022Z,22.73
2022-09-23T18:09:03.865Z,23.00
2022-09-23T18:11:33.750Z,15.10
2022-09-23T18:14:05.749Z,12.02
2022-09-23T18:16:37.845Z,8.52
2022-09-23T18:19:05.426Z,6.05
2022-09-23T18:21:40.703Z,6.00
2022-09-23T18:26:59.467Z,8.73
2022-09-23T18:29:26.440Z,9.93
2022-09-23T18:31:53.230Z,9.90
2022-09-23T18:34:20.276Z,8.10
2022-09-23T18:36:47.187Z,17.20
2022-09-23T18:39:13.913Z,24.52
2022-09-23T18:41:41.174Z,10.13
2022-09-23T18:44:08.517Z,8.23
2022-09-23T18:46:35.486Z,5.68
2022-09-23T18:49:20.774Z,6.03
2022-09-23T18:51:51.023Z,6.97
2022-09-23T18:54:19.297Z,6.30
2022-09-23T18:56:46.406Z,6.63
2022-09-23T18:59:20.342Z,9.02
2022-09-23T19:01:49.833Z,15.05
2022-09-23T19:04:19.349Z,9.77
2022-09-23T19:06:46.550Z,6.30
2022-09-23T19:09:15.318Z,6.97
2022-09-23T19:11:42.265Z,7.18
2022-09-23T19:14:11.311Z,7.35
2022-09-23T19:16:39.416Z,9.18
2022-09-23T19:19:06.599Z,12.50
2022-09-23T19:21:34.218Z,16.40
2022-09-23T19:24:04.251Z,22.42
2022-09-23T19:26:37.461Z,22.65
2022-09-23T19:29:07.931Z,23.67
2022-09-23T19:31:40.145Z,21.38
2022-09-23T19:34:12.429Z,25.52
2022-09-23T19:36:42.517Z,26.30
2022-09-23T19:39:17.259Z,23.63
2022-09-23T19:41:44.410Z,19.88
2022-09-23T19:44:11.766Z,16.58
2022-09-23T19:46:45.129Z,12.90
2022-09-23T19:49:12.386Z,11.50
2022-09-23T19:51:39.162Z,11.55
2022-09-23T19:54:07.429Z,15.43
2022-09-23T19:56:35.492Z,22.50
2022-09-23T19:59:03.049Z,20.98
2022-09-23T20:01:31.813Z,15.38
2022-09-23T20:03:59.177Z,14.57
2022-09-23T20:06:29.869Z,13.77
2022-09-23T20:08:57.987Z,10.05
2022-09-23T20:11:28.543Z,13.63
2022-09-23T20:14:01.020Z,9.27
2022-09-23T20:16:34.569Z,11.35
2022-09-23T20:19:02.776Z,10.02
2022-09-23T20:21:29.859Z,7.40
2022-09-23T20:23:57.753Z,5.38
2022-09-23T20:26:43.024Z,4.95
2022-09-23T20:29:10.699Z,4.80
2022-09-23T20:31:37.762Z,4.38
2022-09-23T20:34:06.868Z,4.43
2022-09-23T20:36:35.311Z,4.47
2022-09-23T20:39:06.153Z,6.40
2022-09-23T20:41:37.019Z,9.38
2022-09-23T20:44:06.389Z,11.55
2022-09-23T20:46:34.184Z,7.43
2022-09-23T20:49:01.885Z,4.43
2022-09-23T20:51:28.585Z,3.65
2022-09-23T20:53:55.702Z,4.20
2022-09-23T20:56:22.672Z,6.40
2022-09-23T20:58:50.641Z,5.05
2022-09-23T21:01:18.170Z,6.75
2022-09-23T21:03:46.748Z,6.00
2022-09-23T21:06:15.506Z,5.97
2022-09-23T21:08:43.450Z,6.10
2022-09-23T21:11:15.330Z,5.90
2022-09-23T21:13:47.083Z,5.35
2022-09-23T21:16:16.097Z,5.25
2022-09-23T21:18:43.718Z,4.95
2022-09-23T21:21:12.044Z,4.25
2022-09-23T21:23:39.888Z,4.15
2022-09-23T21:26:28.537Z,3.35
2022-09-23T21:29:00.192Z,3.80
2022-09-23T21:31:28.364Z,3.38
2022-09-23T21:33:59.377Z,3.30
2022-09-23T21:36:31.471Z,3.97
2022-09-23T21:38:58.965Z,3.00
2022-09-23T21:41:25.568Z,2.70
2022-09-23T21:43:52.264Z,3.30
2022-09-23T21:46:20.659Z,3.40
2022-09-23T21:48:58.711Z,2.88
2022-09-23T21:51:27.974Z,3.53
2022-09-23T21:53:56.920Z,3.33
2022-09-23T21:56:26.227Z,4.13
2022-09-23T21:58:53.738Z,4.05
2022-09-23T22:01:36.137Z,6.40
2022-09-23T22:04:07.881Z,4.63
2022-09-23T22:06:38.043Z,3.13
2022-09-23T22:09:10.332Z,2.63
2022-09-23T22:11:56.516Z,3.72
2022-09-23T22:14:26.016Z,3.28
2022-09-23T22:16:57.566Z,2.60
2022-09-23T22:19:34.975Z,2.95
2022-09-23T22:22:06.649Z,2.50
2022-09-23T22:24:33.280Z,2.42
2022-09-23T22:27:00.023Z,2.90
2022-09-23T22:29:45.220Z,2.45
2022-09-23T22:32:30.628Z,2.65
2022-09-23T22:34:57.469Z,2.45
2022-09-23T22:37:38.294Z,2.58
2022-09-23T22:40:11.112Z,2.35
2022-09-23T22:42:38.898Z,2.20
2022-09-23T22:45:06.255Z,2.60
2022-09-23T22:47:37.017Z,2.20
2022-09-23T22:50:08.976Z,2.40
2022-09-23T22:52:35.692Z,2.28
2022-09-23T22:55:03.646Z,2.60
2022-09-23T22:57:31.169Z,2.10
2022-09-23T22:59:57.907Z,2.47
2022-09-23T23:02:24.509Z,2.53
2022-09-23T23:04:51.238Z,2.55
2022-09-23T23:07:22.911Z,2.10
2022-09-23T23:09:50.501Z,2.20
2022-09-23T23:12:19.946Z,2.53
2022-09-23T23:14:48.105Z,2.17
2022-09-23T23:17:14.702Z,2.35
2022-09-23T23:19:41.317Z,2.33
2022-09-23T23:22:07.938Z,2.83
2022-09-23T23:24:34.625Z,2.95
2022-09-23T23:27:01.416Z,2.55
2022-09-23T23:29:28.107Z,2.72
2022-09-23T23:31:54.801Z,2.83
2022-09-23T23:34:21.975Z,2.45
2022-09-23T23:36:54.353Z,2.33
2022-09-23T23:39:23.526Z,2.60
2022-09-23T23:41:57.607Z,3.05
2022-09-23T23:44:25.523Z,2.90
2022-09-23T23:46:53.047Z,2.67
2022-09-23T23:49:20.150Z,2.63
2022-09-23T23:51:47.762Z,2.55
2022-09-23T23:54:15.174Z,2.60
2022-09-23T23:56:41.953Z,2.45
2022-09-23T23:59:08.589Z,2.60
